Time;durP1;ratioP1;P1;durP2;ratioP2;P2;SDS_P1;SDS_P2;PMS_P1;PMS_P2;Temp;Humidity;BMP_temperature;BMP_pressure;BME280_temperature;BME280_humidity;BME280_pressure;Samples;Min_cycle;Max_cycle;Signal;HPM_P1;HPM_P2
2020/12/05 00:01:40;;;;;;;11.45;8.02;;;;;;;;;;5023812;28;20260;-51
2020/12/05 00:04:06;;;;;;;9.77;7.72;;;;;;;;;;5013664;28;20259;-51
2020/12/05 00:06:32;;;;;;;12.23;7.60;;;;;;;;;;5010692;28;20164;-51
2020/12/05 00:08:58;;;;;;;6.95;6.30;;;;;;;;;;5010670;28;20177;-51
2020/12/05 00:11:27;;;;;;;8.13;7.27;;;;;;;;;;5013237;28;20190;-52
2020/12/05 00:13:53;;;;;;;8.20;6.65;;;;;;;;;;5013218;28;20533;-51
2020/12/05 00:16:19;;;;;;;9.40;7.53;;;;;;;;;;5014070;28;20170;-51
2020/12/05 00:18:46;;;;;;;6.60;5.97;;;;;;;;;;5014367;28;20262;-51
2020/12/05 00:21:15;;;;;;;7.20;6.55;;;;;;;;;;5013980;28;20164;-50
2020/12/05 00:23:41;;;;;;;8.32;6.97;;;;;;;;;;5013189;28;20196;-51
2020/12/05 00:26:07;;;;;;;8.00;7.20;;;;;;;;;;5013949;28;20168;-51
2020/12/05 00:28:33;;;;;;;7.63;6.47;;;;;;;;;;5014065;28;20403;-53
2020/12/05 00:30:59;;;;;;;9.23;7.17;;;;;;;;;;5013823;28;20427;-53
2020/12/05 00:33:25;;;;;;;8.83;7.70;;;;;;;;;;5013572;28;20966;-51
2020/12/05 00:35:51;;;;;;;7.30;6.60;;;;;;;;;;5013972;28;20400;-50
2020/12/05 00:38:18;;;;;;;19.13;9.07;;;;;;;;;;5013656;28;20438;-51
2020/12/05 00:40:44;;;;;;;10.35;7.47;;;;;;;;;;5012919;28;20450;-52
2020/12/05 00:43:10;;;;;;;12.30;7.10;;;;;;;;;;5013362;28;20667;-51
2020/12/05 00:45:36;;;;;;;9.40;7.18;;;;;;;;;;5013901;28;20399;-51
2020/12/05 00:48:02;;;;;;;11.03;7.73;;;;;;;;;;5012330;28;20880;-51
2020/12/05 00:50:28;;;;;;;10.93;7.63;;;;;;;;;;5013676;28;20410;-51
2020/12/05 00:52:54;;;;;;;9.57;7.53;;;;;;;;;;5013025;28;20462;-51
2020/12/05 00:55:20;;;;;;;8.10;7.30;;;;;;;;;;5013582;28;20480;-51
2020/12/05 00:57:45;;;;;;;8.53;7.60;;;;;;;;;;5013575;28;20766;-51
2020/12/05 01:00:12;;;;;;;8.73;7.27;;;;;;;;;;5013712;28;20872;-51
2020/12/05 01:02:38;;;;;;;9.43;7.60;;;;;;;;;;5013698;28;20447;-51
2020/12/05 01:05:04;;;;;;;8.63;7.57;;;;;;;;;;5012810;28;20705;-51
2020/12/05 01:07:30;;;;;;;6.85;6.15;;;;;;;;;;5013138;28;20431;-51
2020/12/05 01:09:56;;;;;;;8.43;7.65;;;;;;;;;;5013258;28;20184;-50
2020/12/05 01:12:24;;;;;;;9.70;6.80;;;;;;;;;;5013229;28;20172;-51
2020/12/05 01:14:50;;;;;;;7.93;7.13;;;;;;;;;;5013054;28;20419;-51
2020/12/05 01:17:16;;;;;;;7.43;6.72;;;;;;;;;;5013207;28;20175;-51
2020/12/05 01:19:42;;;;;;;10.93;7.83;;;;;;;;;;5013017;28;20196;-51
2020/12/05 01:22:08;;;;;;;9.33;7.73;;;;;;;;;;5012788;28;20446;-51
2020/12/05 01:24:34;;;;;;;11.17;8.00;;;;;;;;;;5012766;28;20454;-53
2020/12/05 01:27:00;;;;;;;10.20;8.67;;;;;;;;;;5013066;28;20518;-52
2020/12/05 01:29:26;;;;;;;10.00;8.30;;;;;;;;;;5012847;28;20410;-52
2020/12/05 01:31:52;;;;;;;10.33;8.40;;;;;;;;;;5012056;28;20451;-51
2020/12/05 01:34:18;;;;;;;9.17;7.50;;;;;;;;;;5012332;28;20946;-51
2020/12/05 01:36:44;;;;;;;15.10;9.00;;;;;;;;;;5012823;28;20843;-52
2020/12/05 01:39:10;;;;;;;9.48;8.32;;;;;;;;;;5012582;28;21016;-51
2020/12/05 01:41:36;;;;;;;10.70;8.68;;;;;;;;;;5012526;28;20175;-51
2020/12/05 01:44:02;;;;;;;10.95;9.25;;;;;;;;;;5012473;28;20239;-51
2020/12/05 01:46:33;;;;;;;9.65;8.65;;;;;;;;;;5012508;28;20178;-50
2020/12/05 01:48:59;;;;;;;10.38;8.98;;;;;;;;;;5011534;28;20201;-52
2020/12/05 01:51:25;;;;;;;12.13;8.63;;;;;;;;;;5012292;28;20592;-51
2020/12/05 01:53:51;;;;;;;13.17;8.87;;;;;;;;;;5012165;28;20267;-52
2020/12/05 01:56:18;;;;;;;11.10;9.30;;;;;;;;;;5012394;28;20794;-52
2020/12/05 01:58:44;;;;;;;13.13;8.95;;;;;;;;;;5012382;28;20447;-51
2020/12/05 02:01:10;;;;;;;10.43;9.00;;;;;;;;;;5011829;28;20172;-51
2020/12/05 02:03:36;;;;;;;13.70;9.68;;;;;;;;;;5010639;28;20443;-51
2020/12/05 02:06:07;;;;;;;13.87;9.40;;;;;;;;;;5011673;28;20662;-51
2020/12/05 02:08:36;;;;;;;11.02;9.13;;;;;;;;;;5012182;28;20406;-51
2020/12/05 02:11:02;;;;;;;11.82;9.57;;;;;;;;;;5012014;28;20195;-53
2020/12/05 02:13:38;;;;;;;12.23;9.40;;;;;;;;;;5011862;28;20184;-52
2020/12/05 02:16:05;;;;;;;13.27;9.05;;;;;;;;;;5012130;28;20167;-51
2020/12/05 02:18:32;;;;;;;11.95;9.70;;;;;;;;;;5012064;28;20199;-51
2020/12/05 02:21:00;;;;;;;15.27;10.60;;;;;;;;;;5012183;28;20223;-51
2020/12/05 02:23:27;;;;;;;12.38;9.55;;;;;;;;;;5012205;28;20610;-51
2020/12/05 02:25:59;;;;;;;13.18;9.00;;;;;;;;;;5012305;28;20160;-53
2020/12/05 02:28:25;;;;;;;12.55;9.25;;;;;;;;;;5011997;28;20650;-53
2020/12/05 02:30:51;;;;;;;11.27;9.70;;;;;;;;;;5011943;28;20198;-53
2020/12/05 02:33:18;;;;;;;13.10;8.93;;;;;;;;;;5010157;28;20550;-53
2020/12/05 02:35:44;;;;;;;13.93;10.35;;;;;;;;;;5011923;28;20436;-51
2020/12/05 02:38:13;;;;;;;10.35;7.80;;;;;;;;;;5011570;28;20222;-51
2020/12/05 02:40:39;;;;;;;10.70;7.80;;;;;;;;;;5011821;28;20172;-53
2020/12/05 02:43:06;;;;;;;13.73;8.20;;;;;;;;;;5011343;28;20229;-54
2020/12/05 02:45:32;;;;;;;20.80;8.90;;;;;;;;;;5011670;28;20559;-51
2020/12/05 02:47:58;;;;;;;11.20;8.90;;;;;;;;;;5011462;28;20171;-51
2020/12/05 02:50:24;;;;;;;20.60;9.00;;;;;;;;;;5011532;28;20172;-51
2020/12/05 02:52:50;;;;;;;12.73;9.35;;;;;;;;;;5011963;28;20399;-51
2020/12/05 02:55:16;;;;;;;9.90;8.60;;;;;;;;;;5011250;28;20197;-51
2020/12/05 02:57:42;;;;;;;12.17;9.97;;;;;;;;;;5011426;28;20391;-51
2020/12/05 03:00:08;;;;;;;17.07;10.57;;;;;;;;;;5011182;28;20461;-51
2020/12/05 03:02:34;;;;;;;19.27;10.80;;;;;;;;;;5010294;28;20505;-51
2020/12/05 03:05:00;;;;;;;15.83;10.03;;;;;;;;;;5011250;28;20423;-53
2020/12/05 03:07:26;;;;;;;14.33;11.20;;;;;;;;;;5011318;28;20466;-53
2020/12/05 03:09:52;;;;;;;16.00;9.63;;;;;;;;;;5011219;28;20399;-51
2020/12/05 03:12:18;;;;;;;14.83;10.23;;;;;;;;;;5010947;28;20839;-51
2020/12/05 03:14:44;;;;;;;12.23;10.10;;;;;;;;;;5010979;28;20482;-52
2020/12/05 03:17:10;;;;;;;18.93;11.30;;;;;;;;;;5011178;28;20176;-51
2020/12/05 03:19:36;;;;;;;17.58;11.20;;;;;;;;;;5010957;28;20559;-51
2020/12/05 03:22:02;;;;;;;14.93;12.07;;;;;;;;;;5010947;28;20244;-51
2020/12/05 03:24:28;;;;;;;21.75;13.73;;;;;;;;;;5011036;28;20420;-52
2020/12/05 03:26:54;;;;;;;22.27;14.10;;;;;;;;;;5011011;28;20169;-51
2020/12/05 03:29:20;;;;;;;20.90;14.23;;;;;;;;;;5011099;28;20400;-54
2020/12/05 03:31:56;;;;;;;20.10;13.13;;;;;;;;;;5010809;28;20411;-53
2020/12/05 03:34:22;;;;;;;14.70;12.00;;;;;;;;;;5009956;28;20209;-52
2020/12/05 03:36:48;;;;;;;18.05;12.27;;;;;;;;;;5010885;28;20211;-52
2020/12/05 03:39:14;;;;;;;18.43;13.07;;;;;;;;;;5010890;28;20201;-51
2020/12/05 03:41:40;;;;;;;17.58;13.02;;;;;;;;;;5010743;28;20407;-52
2020/12/05 03:44:06;;;;;;;20.05;13.25;;;;;;;;;;5010682;28;20184;-53
2020/12/05 03:46:32;;;;;;;16.60;12.53;;;;;;;;;;5014838;28;20222;-52
2020/12/05 03:48:59;;;;;;;19.30;13.33;;;;;;;;;;5014904;28;20789;-53
2020/12/05 03:51:25;;;;;;;19.70;12.52;;;;;;;;;;5014670;28;20403;-51
2020/12/05 03:53:51;;;;;;;22.13;13.82;;;;;;;;;;5014633;28;20270;-51
2020/12/05 03:56:17;;;;;;;18.57;12.50;;;;;;;;;;5014653;28;20259;-51
2020/12/05 03:58:43;;;;;;;17.50;12.87;;;;;;;;;;5014656;28;20455;-51
2020/12/05 04:01:10;;;;;;;19.17;12.95;;;;;;;;;;5014658;28;20403;-51
2020/12/05 04:03:36;;;;;;;20.95;13.95;;;;;;;;;;5013326;28;20556;-51
2020/12/05 04:06:02;;;;;;;19.23;13.20;;;;;;;;;;5013914;28;20189;-51
2020/12/05 04:08:29;;;;;;;21.67;13.35;;;;;;;;;;5014537;28;20411;-51
2020/12/05 04:10:55;;;;;;;19.42;13.43;;;;;;;;;;5014516;28;20203;-52
2020/12/05 04:13:21;;;;;;;18.00;13.27;;;;;;;;;;5014029;28;20225;-52
2020/12/05 04:15:47;;;;;;;21.50;13.90;;;;;;;;;;5014454;28;20649;-53
2020/12/05 04:18:15;;;;;;;19.70;13.43;;;;;;;;;;5014185;28;20403;-52
2020/12/05 04:20:41;;;;;;;19.42;13.77;;;;;;;;;;5014399;28;20424;-53
2020/12/05 04:23:07;;;;;;;16.63;12.40;;;;;;;;;;5014139;28;20223;-51
2020/12/05 04:25:33;;;;;;;19.60;12.70;;;;;;;;;;5014570;28;20415;-51
2020/12/05 04:27:59;;;;;;;18.97;14.03;;;;;;;;;;5014294;28;20416;-51
2020/12/05 04:30:25;;;;;;;19.33;14.77;;;;;;;;;;5014487;28;20427;-51
2020/12/05 04:32:51;;;;;;;18.50;12.97;;;;;;;;;;5014195;28;20425;-51
2020/12/05 04:35:17;;;;;;;21.97;14.30;;;;;;;;;;5013304;28;20501;-51
2020/12/05 04:37:43;;;;;;;19.93;14.20;;;;;;;;;;5014268;28;20502;-51
2020/12/05 04:40:09;;;;;;;19.57;13.33;;;;;;;;;;5013842;28;20458;-51
2020/12/05 04:42:42;;;;;;;21.23;13.70;;;;;;;;;;5013700;28;20399;-51
2020/12/05 04:45:08;;;;;;;20.13;13.82;;;;;;;;;;5013835;28;20451;-53
2020/12/05 04:47:35;;;;;;;18.60;13.75;;;;;;;;;;5013903;28;20168;-51
2020/12/05 04:50:02;;;;;;;19.33;13.13;;;;;;;;;;5013826;28;20637;-51
2020/12/05 04:52:40;;;;;;;21.42;14.77;;;;;;;;;;5013566;28;20184;-51
2020/12/05 04:55:06;;;;;;;18.88;13.77;;;;;;;;;;5013071;28;20326;-51
2020/12/05 04:57:38;;;;;;;24.60;14.93;;;;;;;;;;5013727;28;20254;-51
2020/12/05 05:00:04;;;;;;;24.02;14.10;;;;;;;;;;5013536;28;20459;-51
2020/12/05 05:02:30;;;;;;;27.33;15.82;;;;;;;;;;5013364;28;20295;-51
2020/12/05 05:04:56;;;;;;;22.35;14.23;;;;;;;;;;5012566;28;20200;-51
2020/12/05 05:07:22;;;;;;;22.05;14.52;;;;;;;;;;5013529;28;20195;-51
2020/12/05 05:09:53;;;;;;;23.30;14.00;;;;;;;;;;5013343;28;20168;-51
2020/12/05 05:12:26;;;;;;;24.92;15.77;;;;;;;;;;5013191;28;20267;-52
2020/12/05 05:14:52;;;;;;;23.55;15.55;;;;;;;;;;5013118;28;20189;-51
2020/12/05 05:17:18;;;;;;;29.20;17.33;;;;;;;;;;5013296;28;20288;-51
2020/12/05 05:19:44;;;;;;;21.33;14.80;;;;;;;;;;5013144;28;20450;-53
2020/12/05 05:22:10;;;;;;;19.85;13.75;;;;;;;;;;5012731;28;20898;-52
2020/12/05 05:24:35;;;;;;;23.57;15.13;;;;;;;;;;5013069;28;20277;-51
2020/12/05 05:27:04;;;;;;;25.13;15.40;;;;;;;;;;5012160;28;20503;-51
2020/12/05 05:29:37;;;;;;;27.35;14.70;;;;;;;;;;5013085;28;20400;-51
2020/12/05 05:32:11;;;;;;;25.50;13.73;;;;;;;;;;5012608;28;20556;-55
2020/12/05 05:34:37;;;;;;;24.92;15.00;;;;;;;;;;5012727;28;20247;-51
2020/12/05 05:37:17;;;;;;;27.25;15.82;;;;;;;;;;5012763;28;20699;-51
2020/12/05 05:39:55;;;;;;;19.98;13.93;;;;;;;;;;5012824;28;20212;-51
2020/12/05 05:42:28;;;;;;;20.60;15.02;;;;;;;;;;5012561;28;20174;-51
2020/12/05 05:44:53;;;;;;;29.98;17.45;;;;;;;;;;5012609;28;20588;-51
2020/12/05 05:47:21;;;;;;;23.50;15.47;;;;;;;;;;5012569;28;20245;-52
2020/12/05 05:49:47;;;;;;;27.52;15.77;;;;;;;;;;5012634;28;20419;-51
2020/12/05 05:52:17;;;;;;;21.47;15.17;;;;;;;;;;5012298;28;20176;-51
2020/12/05 05:54:53;;;;;;;27.95;16.67;;;;;;;;;;5012663;28;20757;-53
2020/12/05 05:57:19;;;;;;;26.27;15.70;;;;;;;;;;5011693;28;20215;-51
2020/12/05 05:59:45;;;;;;;23.70;16.10;;;;;;;;;;5012554;28;20227;-51
2020/12/05 06:02:15;;;;;;;29.10;16.08;;;;;;;;;;5012200;28;20486;-51
2020/12/05 06:04:48;;;;;;;25.50;16.50;;;;;;;;;;5012576;28;20192;-51
2020/12/05 06:07:14;;;;;;;27.55;17.48;;;;;;;;;;5011826;28;20176;-54
2020/12/05 06:09:45;;;;;;;28.42;17.83;;;;;;;;;;5012586;28;20201;-51
2020/12/05 06:12:11;;;;;;;28.83;17.23;;;;;;;;;;5012193;28;20180;-51
2020/12/05 06:14:40;;;;;;;27.25;16.45;;;;;;;;;;5012141;28;20212;-51
2020/12/05 06:17:07;;;;;;;32.65;17.77;;;;;;;;;;5012398;28;20187;-52
2020/12/05 06:19:33;;;;;;;31.88;17.90;;;;;;;;;;5011941;28;20220;-51
2020/12/05 06:21:59;;;;;;;28.23;16.25;;;;;;;;;;5011897;28;20251;-51
2020/12/05 06:24:46;;;;;;;23.47;15.60;;;;;;;;;;5011690;28;20346;-51
2020/12/05 06:27:14;;;;;;;26.85;16.58;;;;;;;;;;5010910;28;20573;-51
2020/12/05 06:29:40;;;;;;;30.58;17.73;;;;;;;;;;5011909;28;20187;-52
2020/12/05 06:32:07;;;;;;;30.23;18.20;;;;;;;;;;5011765;28;20172;-51
2020/12/05 06:34:37;;;;;;;28.77;17.50;;;;;;;;;;5011566;28;20212;-51
2020/12/05 06:37:04;;;;;;;26.67;17.30;;;;;;;;;;5011764;28;20215;-51
2020/12/05 06:39:30;;;;;;;28.52;17.33;;;;;;;;;;5011640;28;20196;-51
2020/12/05 06:41:56;;;;;;;23.88;16.02;;;;;;;;;;5011761;28;20180;-51
2020/12/05 06:44:22;;;;;;;28.43;16.83;;;;;;;;;;5011427;28;20262;-51
2020/12/05 06:47:02;;;;;;;28.57;17.13;;;;;;;;;;5011676;28;20395;-51
2020/12/05 06:49:37;;;;;;;26.00;16.30;;;;;;;;;;5011427;28;20778;-51
2020/12/05 06:52:25;;;;;;;29.67;17.60;;;;;;;;;;5011479;28;20207;-55
2020/12/05 06:54:54;;;;;;;27.48;16.55;;;;;;;;;;5011411;28;20192;-52
2020/12/05 06:57:24;;;;;;;30.52;18.10;;;;;;;;;;5010819;28;20216;-51
2020/12/05 06:59:51;;;;;;;29.02;18.45;;;;;;;;;;5011156;28;20203;-51
2020/12/05 07:02:27;;;;;;;29.67;17.52;;;;;;;;;;5011087;28;20173;-53
2020/12/05 07:05:13;;;;;;;29.02;17.75;;;;;;;;;;5011459;28;20547;-51
2020/12/05 07:07:39;;;;;;;29.17;17.73;;;;;;;;;;5011264;28;20534;-51
2020/12/05 07:10:05;;;;;;;33.77;18.07;;;;;;;;;;5011355;28;20172;-51
2020/12/05 07:12:41;;;;;;;24.92;16.67;;;;;;;;;;5010834;28;20950;-51
2020/12/05 07:15:26;;;;;;;36.13;17.95;;;;;;;;;;5011161;28;20249;-52
2020/12/05 07:17:53;;;;;;;29.08;17.33;;;;;;;;;;5011045;28;20168;-51
2020/12/05 07:20:19;;;;;;;28.58;17.40;;;;;;;;;;5010945;28;20204;-51
2020/12/05 07:22:47;;;;;;;27.02;17.35;;;;;;;;;;5010243;28;20179;-53
2020/12/05 07:25:13;;;;;;;31.13;18.45;;;;;;;;;;5010686;28;20330;-51
2020/12/05 07:27:39;;;;;;;28.07;16.63;;;;;;;;;;5009265;28;20691;-51
2020/12/05 07:30:06;;;;;;;33.63;19.05;;;;;;;;;;5009877;28;20561;-51
2020/12/05 07:32:33;;;;;;;26.23;16.52;;;;;;;;;;5009895;28;20664;-51
2020/12/05 07:35:00;;;;;;;29.05;18.27;;;;;;;;;;5010609;28;20234;-53
2020/12/05 07:37:27;;;;;;;33.33;17.90;;;;;;;;;;5010830;28;20172;-52
2020/12/05 07:39:53;;;;;;;27.00;16.52;;;;;;;;;;5010923;28;20624;-51
2020/12/05 07:42:19;;;;;;;31.40;19.60;;;;;;;;;;5010630;28;20792;-51
2020/12/05 07:44:45;;;;;;;31.45;18.40;;;;;;;;;;5010968;28;20581;-51
2020/12/05 07:47:21;;;;;;;30.55;17.50;;;;;;;;;;5010854;28;20642;-53
2020/12/05 07:49:53;;;;;;;26.70;16.65;;;;;;;;;;5010058;28;20164;-51
2020/12/05 07:52:20;;;;;;;27.25;17.00;;;;;;;;;;5010010;28;20759;-51
2020/12/05 07:54:55;;;;;;;28.77;16.55;;;;;;;;;;5009984;28;20184;-53
2020/12/05 07:57:22;;;;;;;26.88;16.30;;;;;;;;;;5009417;28;20184;-51
2020/12/05 07:59:47;;;;;;;27.38;16.80;;;;;;;;;;5010637;28;20196;-51
2020/12/05 08:02:31;;;;;;;27.30;17.37;;;;;;;;;;5010584;28;20230;-51
2020/12/05 08:05:02;;;;;;;28.33;17.65;;;;;;;;;;5010822;28;20779;-53
2020/12/05 08:07:38;;;;;;;24.70;16.75;;;;;;;;;;5010941;28;20183;-51
2020/12/05 08:10:09;;;;;;;27.20;17.13;;;;;;;;;;5010892;28;20172;-51
2020/12/05 08:12:37;;;;;;;28.70;17.95;;;;;;;;;;5010525;28;20606;-54
2020/12/05 08:15:03;;;;;;;27.80;16.75;;;;;;;;;;5010465;28;20242;-51
2020/12/05 08:17:33;;;;;;;25.83;15.87;;;;;;;;;;5010742;28;20172;-51
2020/12/05 08:20:02;;;;;;;26.52;16.48;;;;;;;;;;5010453;28;20478;-51
2020/12/05 08:22:30;;;;;;;23.58;14.80;;;;;;;;;;5010343;28;20164;-51
2020/12/05 08:24:57;;;;;;;25.55;14.98;;;;;;;;;;5010395;28;20196;-51
2020/12/05 08:27:23;;;;;;;27.13;14.52;;;;;;;;;;5009721;28;20172;-51
2020/12/05 08:29:50;;;;;;;24.50;15.65;;;;;;;;;;5010601;28;21163;-51
2020/12/05 08:32:20;;;;;;;21.02;13.80;;;;;;;;;;5013529;28;20180;-52
2020/12/05 08:34:46;;;;;;;24.58;14.27;;;;;;;;;;5013756;28;20690;-53
2020/12/05 08:37:22;;;;;;;23.27;15.43;;;;;;;;;;5014129;28;20175;-51
2020/12/05 08:39:49;;;;;;;17.90;12.63;;;;;;;;;;5013944;28;20958;-51
2020/12/05 08:42:15;;;;;;;16.88;12.13;;;;;;;;;;5012904;28;20424;-52
2020/12/05 08:44:41;;;;;;;18.93;13.13;;;;;;;;;;5012895;28;20189;-52
2020/12/05 08:47:07;;;;;;;18.73;11.70;;;;;;;;;;5012448;28;20462;-52
2020/12/05 08:49:37;;;;;;;19.53;14.17;;;;;;;;;;5013820;28;20201;-51
2020/12/05 08:52:04;;;;;;;18.50;12.43;;;;;;;;;;5013413;28;20410;-51
2020/12/05 08:54:30;;;;;;;17.57;11.60;;;;;;;;;;5014101;28;20428;-52
2020/12/05 08:57:06;;;;;;;17.50;11.40;;;;;;;;;;5012642;28;20460;-53
2020/12/05 08:59:32;;;;;;;12.20;9.53;;;;;;;;;;5013514;28;20457;-52
2020/12/05 09:01:58;;;;;;;15.43;10.73;;;;;;;;;;5013240;28;20410;-52
2020/12/05 09:04:27;;;;;;;11.93;9.63;;;;;;;;;;5013363;28;20423;-52
2020/12/05 09:06:54;;;;;;;11.63;8.87;;;;;;;;;;5013329;28;20402;-51
2020/12/05 09:09:32;;;;;;;12.17;9.17;;;;;;;;;;5013356;28;20410;-51
2020/12/05 09:12:02;;;;;;;11.20;8.80;;;;;;;;;;5013050;28;20771;-53
2020/12/05 09:14:28;;;;;;;9.70;7.80;;;;;;;;;;5013214;28;20435;-53
2020/12/05 09:16:54;;;;;;;9.27;7.30;;;;;;;;;;5013151;28;20468;-53
2020/12/05 09:19:31;;;;;;;11.10;7.33;;;;;;;;;;5013151;28;20464;-51
2020/12/05 09:21:57;;;;;;;11.00;7.60;;;;;;;;;;5012939;28;20415;-53
2020/12/05 09:24:23;;;;;;;11.60;9.70;;;;;;;;;;5012944;28;20421;-52
2020/12/05 09:26:59;;;;;;;7.93;7.07;;;;;;;;;;5013011;28;20497;-51
2020/12/05 09:29:25;;;;;;;7.23;5.97;;;;;;;;;;5012569;28;20461;-52
2020/12/05 09:31:58;;;;;;;8.00;6.70;;;;;;;;;;5012862;28;20407;-51
2020/12/05 09:34:35;;;;;;;7.37;6.67;;;;;;;;;;5012549;28;20451;-53
2020/12/05 09:37:01;;;;;;;8.47;7.57;;;;;;;;;;5011379;28;20813;-52
2020/12/05 09:39:27;;;;;;;9.70;6.83;;;;;;;;;;5012461;28;20489;-54
2020/12/05 09:41:53;;;;;;;6.80;5.57;;;;;;;;;;5011867;28;20391;-54
2020/12/05 09:44:19;;;;;;;6.03;5.43;;;;;;;;;;5012278;28;20981;-55
2020/12/05 09:46:45;;;;;;;5.97;5.43;;;;;;;;;;5012745;28;20399;-53
2020/12/05 09:49:11;;;;;;;9.03;6.13;;;;;;;;;;5012786;28;20395;-52
2020/12/05 09:51:37;;;;;;;6.20;5.60;;;;;;;;;;5012875;28;20404;-51
2020/12/05 09:54:03;;;;;;;5.70;5.17;;;;;;;;;;5012466;28;20794;-52
2020/12/05 09:56:29;;;;;;;5.10;4.70;;;;;;;;;;5011743;28;20403;-51
2020/12/05 09:58:55;;;;;;;5.37;4.87;;;;;;;;;;5012398;28;20529;-53
2020/12/05 10:01:21;;;;;;;5.30;4.70;;;;;;;;;;5012156;28;20933;-54
2020/12/05 10:03:47;;;;;;;4.40;4.00;;;;;;;;;;5012049;28;21013;-53
2020/12/05 10:06:13;;;;;;;9.00;4.90;;;;;;;;;;5012196;28;20382;-51
2020/12/05 10:08:39;;;;;;;4.30;4.00;;;;;;;;;;5012364;28;20399;-51
2020/12/05 10:11:05;;;;;;;4.13;3.83;;;;;;;;;;5012028;28;20482;-52
2020/12/05 10:13:31;;;;;;;3.73;3.50;;;;;;;;;;5011869;28;20427;-52
2020/12/05 10:15:57;;;;;;;4.00;3.70;;;;;;;;;;5011931;28;20408;-52
2020/12/05 10:18:23;;;;;;;4.90;3.40;;;;;;;;;;5012109;28;20502;-52
2020/12/05 10:20:49;;;;;;;4.60;4.13;;;;;;;;;;5011713;28;20505;-52
2020/12/05 10:23:15;;;;;;;3.90;3.60;;;;;;;;;;5011772;28;20399;-52
2020/12/05 10:25:41;;;;;;;4.53;3.90;;;;;;;;;;5010583;28;20443;-52
2020/12/05 10:28:07;;;;;;;3.43;3.13;;;;;;;;;;5010374;28;20473;-55
2020/12/05 10:30:33;;;;;;;3.80;3.50;;;;;;;;;;5011790;28;20399;-53
2020/12/05 10:32:58;;;;;;;3.67;3.37;;;;;;;;;;5011681;28;20414;-53
2020/12/05 10:35:24;;;;;;;3.00;2.80;;;;;;;;;;5010885;28;21172;-52
2020/12/05 10:37:50;;;;;;;4.10;3.40;;;;;;;;;;5011584;28;20430;-52
2020/12/05 10:40:16;;;;;;;3.00;2.80;;;;;;;;;;5011464;28;20517;-52
2020/12/05 10:42:42;;;;;;;3.37;3.10;;;;;;;;;;5011298;28;20395;-53
2020/12/05 10:45:08;;;;;;;3.30;3.00;;;;;;;;;;5011487;28;20943;-54
2020/12/05 10:47:34;;;;;;;3.60;3.30;;;;;;;;;;5011480;28;20765;-54
2020/12/05 10:50:00;;;;;;;4.07;3.47;;;;;;;;;;5011566;28;20442;-52
2020/12/05 10:52:26;;;;;;;4.77;3.70;;;;;;;;;;5011183;28;20541;-51
2020/12/05 10:54:52;;;;;;;4.13;3.80;;;;;;;;;;5009577;28;20787;-53
2020/12/05 10:57:18;;;;;;;3.77;3.47;;;;;;;;;;5011203;28;20438;-52
2020/12/05 10:59:44;;;;;;;3.87;3.67;;;;;;;;;;5011196;28;21227;-52
2020/12/05 11:02:10;;;;;;;3.73;3.43;;;;;;;;;;5011123;28;20403;-52
2020/12/05 11:04:37;;;;;;;5.77;4.60;;;;;;;;;;5010722;28;20397;-51
2020/12/05 11:07:03;;;;;;;4.60;3.93;;;;;;;;;;5012668;28;20423;-54
2020/12/05 11:09:29;;;;;;;4.70;4.13;;;;;;;;;;5011078;28;20448;-55
2020/12/05 11:11:55;;;;;;;4.30;3.90;;;;;;;;;;5010912;28;20961;-51
2020/12/05 11:14:20;;;;;;;4.27;3.97;;;;;;;;;;5010687;28;20430;-51
2020/12/05 11:16:47;;;;;;;5.30;4.33;;;;;;;;;;5011093;28;20417;-52
2020/12/05 11:19:13;;;;;;;4.40;4.00;;;;;;;;;;5011067;28;20482;-54
2020/12/05 11:21:38;;;;;;;4.50;4.07;;;;;;;;;;5010933;28;20914;-53
2020/12/05 11:24:04;;;;;;;4.33;3.93;;;;;;;;;;5009580;28;20439;-51
2020/12/05 11:26:30;;;;;;;3.97;3.57;;;;;;;;;;5010780;28;20408;-52
2020/12/05 11:28:56;;;;;;;4.10;3.80;;;;;;;;;;5010933;28;20430;-52
2020/12/05 11:31:22;;;;;;;3.20;3.00;;;;;;;;;;5010867;28;20403;-52
2020/12/05 11:33:48;;;;;;;4.00;3.60;;;;;;;;;;5010744;28;20533;-52
2020/12/05 11:36:14;;;;;;;3.30;3.10;;;;;;;;;;5010008;28;20406;-52
2020/12/05 11:38:40;;;;;;;5.03;3.00;;;;;;;;;;5010907;28;20403;-51
2020/12/05 11:41:06;;;;;;;2.90;2.70;;;;;;;;;;5010707;28;20469;-52
2020/12/05 11:43:32;;;;;;;2.90;2.70;;;;;;;;;;5010654;28;20411;-52
2020/12/05 11:45:58;;;;;;;2.80;2.60;;;;;;;;;;5009971;28;20406;-52
2020/12/05 11:48:24;;;;;;;2.40;2.27;;;;;;;;;;5010148;28;20433;-52
2020/12/05 11:50:50;;;;;;;2.30;2.10;;;;;;;;;;5010726;28;20391;-52
2020/12/05 11:53:16;;;;;;;2.27;2.10;;;;;;;;;;5010521;28;20407;-52
2020/12/05 11:55:42;;;;;;;2.40;2.20;;;;;;;;;;5010656;28;20414;-56
2020/12/05 11:58:08;;;;;;;1.63;1.53;;;;;;;;;;5010668;28;20386;-55
2020/12/05 12:00:34;;;;;;;1.80;1.70;;;;;;;;;;5010751;28;20949;-54
2020/12/05 12:03:00;;;;;;;1.50;1.40;;;;;;;;;;5010679;28;20464;-54
2020/12/05 12:05:26;;;;;;;1.63;1.40;;;;;;;;;;5011134;28;20397;-51
2020/12/05 12:07:52;;;;;;;1.53;1.43;;;;;;;;;;5013727;28;20510;-52
2020/12/05 12:10:19;;;;;;;2.20;1.20;;;;;;;;;;5014222;28;20389;-52
2020/12/05 12:12:45;;;;;;;1.73;1.53;;;;;;;;;;5014490;28;20378;-53
2020/12/05 12:15:15;;;;;;;1.30;1.20;;;;;;;;;;5014211;28;20499;-54
2020/12/05 12:17:41;;;;;;;1.43;1.37;;;;;;;;;;5014389;28;20473;-54
2020/12/05 12:20:08;;;;;;;1.60;1.50;;;;;;;;;;5014119;28;20462;-52
2020/12/05 12:22:34;;;;;;;1.73;1.63;;;;;;;;;;5014111;28;20502;-52
2020/12/05 12:25:00;;;;;;;1.60;1.50;;;;;;;;;;5013923;28;20510;-52
2020/12/05 12:27:26;;;;;;;2.20;1.77;;;;;;;;;;5014238;28;20405;-52
2020/12/05 12:29:52;;;;;;;1.60;1.50;;;;;;;;;;5013997;28;20812;-52
2020/12/05 12:32:18;;;;;;;1.57;1.47;;;;;;;;;;5013895;28;20403;-52
2020/12/05 12:34:44;;;;;;;1.77;1.53;;;;;;;;;;5013786;28;20537;-53
2020/12/05 12:37:10;;;;;;;3.77;1.60;;;;;;;;;;5013250;28;20941;-52
2020/12/05 12:39:36;;;;;;;3.43;1.73;;;;;;;;;;5013844;28;20450;-54
2020/12/05 12:42:02;;;;;;;1.63;1.53;;;;;;;;;;5013564;28;20403;-52
2020/12/05 12:44:28;;;;;;;1.43;1.33;;;;;;;;;;5013769;28;20949;-54
2020/12/05 12:47:11;;;;;;;1.60;1.50;;;;;;;;;;5013751;28;20402;-51
2020/12/05 12:49:37;;;;;;;1.50;1.40;;;;;;;;;;5013846;28;20399;-53
2020/12/05 12:52:04;;;;;;;1.87;1.63;;;;;;;;;;5013428;28;20410;-53
2020/12/05 12:54:30;;;;;;;2.57;2.37;;;;;;;;;;5013638;28;21064;-51
2020/12/05 12:56:56;;;;;;;1.50;1.40;;;;;;;;;;5013559;28;20414;-51
2020/12/05 12:59:22;;;;;;;1.53;1.43;;;;;;;;;;5013570;28;20863;-51
2020/12/05 13:01:52;;;;;;;1.63;1.53;;;;;;;;;;5013329;28;20438;-51
2020/12/05 13:04:18;;;;;;;1.70;1.60;;;;;;;;;;5013318;28;20450;-52
2020/12/05 13:06:44;;;;;;;1.67;1.57;;;;;;;;;;5011903;28;20460;-52
2020/12/05 13:09:09;;;;;;;1.70;1.60;;;;;;;;;;5013367;28;20413;-53
2020/12/05 13:11:35;;;;;;;1.90;1.80;;;;;;;;;;5013203;28;20438;-52
2020/12/05 13:14:01;;;;;;;1.50;1.40;;;;;;;;;;5013108;28;20464;-54
2020/12/05 13:16:27;;;;;;;1.70;1.60;;;;;;;;;;5010866;28;20442;-54
2020/12/05 13:18:53;;;;;;;2.70;1.77;;;;;;;;;;5012923;28;20482;-51
2020/12/05 13:21:20;;;;;;;1.43;1.33;;;;;;;;;;5013087;28;20481;-51
2020/12/05 13:23:46;;;;;;;3.90;1.90;;;;;;;;;;5012834;28;20425;-55
2020/12/05 13:26:12;;;;;;;2.30;1.67;;;;;;;;;;5013201;28;20408;-54
2020/12/05 13:28:38;;;;;;;1.40;1.30;;;;;;;;;;5013010;28;20794;-53
2020/12/05 13:31:04;;;;;;;1.63;1.30;;;;;;;;;;5013118;28;20413;-53
2020/12/05 13:33:30;;;;;;;2.03;1.83;;;;;;;;;;5012649;28;20660;-51
2020/12/05 13:35:56;;;;;;;2.03;1.40;;;;;;;;;;5013200;28;20417;-51
2020/12/05 13:38:22;;;;;;;2.13;1.47;;;;;;;;;;5012098;28;20516;-51
2020/12/05 13:40:48;;;;;;;7.53;1.70;;;;;;;;;;5011462;28;20466;-51
2020/12/05 13:43:13;;;;;;;1.73;1.63;;;;;;;;;;5012576;28;20771;-51
2020/12/05 13:45:39;;;;;;;1.67;1.57;;;;;;;;;;5012561;28;20792;-51
2020/12/05 13:48:05;;;;;;;1.60;1.50;;;;;;;;;;5012579;28;20406;-53
2020/12/05 13:50:31;;;;;;;1.80;1.70;;;;;;;;;;5012309;28;20419;-51
2020/12/05 13:52:57;;;;;;;5.13;2.00;;;;;;;;;;5012281;28;20461;-51
2020/12/05 13:55:23;;;;;;;1.77;1.47;;;;;;;;;;5012243;28;20430;-51
2020/12/05 13:57:50;;;;;;;1.70;1.60;;;;;;;;;;5012405;28;20414;-52
2020/12/05 14:00:16;;;;;;;2.40;1.53;;;;;;;;;;5012180;28;20447;-52
2020/12/05 14:02:42;;;;;;;1.43;1.33;;;;;;;;;;5012150;28;20408;-51
2020/12/05 14:05:08;;;;;;;1.83;1.73;;;;;;;;;;5012111;28;20924;-51
2020/12/05 14:07:34;;;;;;;1.83;1.67;;;;;;;;;;5011230;28;20427;-51
2020/12/05 14:10:00;;;;;;;1.40;1.30;;;;;;;;;;5012283;28;20901;-52
2020/12/05 14:12:26;;;;;;;1.80;1.70;;;;;;;;;;5011860;28;20738;-53
2020/12/05 14:14:52;;;;;;;2.17;1.80;;;;;;;;;;5012129;28;20450;-53
2020/12/05 14:17:18;;;;;;;1.80;1.70;;;;;;;;;;5011942;28;20402;-52
2020/12/05 14:19:44;;;;;;;1.57;1.47;;;;;;;;;;5012100;28;21085;-54
2020/12/05 14:22:10;;;;;;;1.50;1.40;;;;;;;;;;5011674;28;20400;-51
2020/12/05 14:24:36;;;;;;;3.73;1.50;;;;;;;;;;5011965;28;20450;-51
2020/12/05 14:27:02;;;;;;;1.80;1.70;;;;;;;;;;5011911;28;20886;-51
2020/12/05 14:29:28;;;;;;;1.77;1.60;;;;;;;;;;5011277;28;20403;-51
2020/12/05 14:31:54;;;;;;;1.67;1.57;;;;;;;;;;5011689;28;20405;-51